sensor_id;sensor_type;location;lat;lon;timestamp;pressure;altitude;pressure_sealevel;temperature;humidity
17593;BME280;8915;51.760;14.300;2023-08-07T00:01:09;99701.06;;;15.35;87.29
17593;BME280;8915;51.760;14.300;2023-08-07T00:03:35;99701.06;;;15.35;87.02
17593;BME280;8915;51.760;14.300;2023-08-07T00:06:01;99703.00;;;15.34;87.28
17593;BME280;8915;51.760;14.300;2023-08-07T00:08:29;99701.06;;;15.35;87.28
17593;BME280;8915;51.760;14.300;2023-08-07T00:11:04;99704.50;;;15.35;87.52
17593;BME280;8915;51.760;14.300;2023-08-07T00:13:30;99696.53;;;15.35;87.66
17593;BME280;8915;51.760;14.300;2023-08-07T00:15:57;99694.25;;;15.37;87.52
17593;BME280;8915;51.760;14.300;2023-08-07T00:18:23;99704.88;;;15.37;87.40
17593;BME280;8915;51.760;14.300;2023-08-07T00:20:49;99703.75;;;15.38;87.65
17593;BME280;8915;51.760;14.300;2023-08-07T00:23:15;99695.00;;;15.38;87.69
17593;BME280;8915;51.760;14.300;2023-08-07T00:25:43;99703.75;;;15.38;87.63
17593;BME280;8915;51.760;14.300;2023-08-07T00:28:09;99701.06;;;15.38;87.71
17593;BME280;8915;51.760;14.300;2023-08-07T00:30:36;99704.88;;;15.41;87.26
17593;BME280;8915;51.760;14.300;2023-08-07T00:33:02;99704.16;;;15.40;87.53
17593;BME280;8915;51.760;14.300;2023-08-07T00:35:29;99700.34;;;15.41;87.83
17593;BME280;8915;51.760;14.300;2023-08-07T00:37:56;99693.50;;;15.40;88.00
17593;BME280;8915;51.760;14.300;2023-08-07T00:40:22;99697.69;;;15.41;87.91
17593;BME280;8915;51.760;14.300;2023-08-07T00:42:50;99699.56;;;15.41;87.87
17593;BME280;8915;51.760;14.300;2023-08-07T00:45:16;99694.25;;;15.41;87.60
17593;BME280;8915;51.760;14.300;2023-08-07T00:47:43;99687.41;;;15.40;87.54
17593;BME280;8915;51.760;14.300;2023-08-07T00:50:10;99690.06;;;15.40;87.68
17593;BME280;8915;51.760;14.300;2023-08-07T00:52:37;99692.72;;;15.40;87.84
17593;BME280;8915;51.760;14.300;2023-08-07T00:55:04;99679.06;;;15.38;87.52
17593;BME280;8915;51.760;14.300;2023-08-07T00:57:31;99680.19;;;15.37;87.75
17593;BME280;8915;51.760;14.300;2023-08-07T00:59:59;99684.75;;;15.36;87.61
17593;BME280;8915;51.760;14.300;2023-08-07T01:02:26;99672.97;;;15.34;88.00
17593;BME280;8915;51.760;14.300;2023-08-07T01:04:54;99671.06;;;15.34;87.85
17593;BME280;8915;51.760;14.300;2023-08-07T01:07:21;99676.78;;;15.33;87.84
17593;BME280;8915;51.760;14.300;2023-08-07T01:09:48;99682.44;;;15.31;87.78
17593;BME280;8915;51.760;14.300;2023-08-07T01:12:16;99681.69;;;15.31;87.96
17593;BME280;8915;51.760;14.300;2023-08-07T01:14:52;99684.72;;;15.29;87.80
17593;BME280;8915;51.760;14.300;2023-08-07T01:17:23;99687.38;;;15.26;87.88
17593;BME280;8915;51.760;14.300;2023-08-07T01:19:50;99688.13;;;15.23;87.92
17593;BME280;8915;51.760;14.300;2023-08-07T01:22:19;99684.69;;;15.22;88.21
17593;BME280;8915;51.760;14.300;2023-08-07T01:24:47;99682.81;;;15.23;88.27
17593;BME280;8915;51.760;14.300;2023-08-07T01:27:22;99691.16;;;15.21;87.69
17593;BME280;8915;51.760;14.300;2023-08-07T01:29:54;99694.56;;;15.18;88.00
17593;BME280;8915;51.760;14.300;2023-08-07T01:32:24;99704.44;;;15.18;88.36
17593;BME280;8915;51.760;14.300;2023-08-07T01:34:53;99704.81;;;15.16;88.00
17593;BME280;8915;51.760;14.300;2023-08-07T01:37:22;99702.94;;;15.17;88.50
17593;BME280;8915;51.760;14.300;2023-08-07T01:39:49;99704.06;;;15.16;88.58
17593;BME280;8915;51.760;14.300;2023-08-07T01:42:17;99711.66;;;15.17;88.65
17593;BME280;8915;51.760;14.300;2023-08-07T01:44:44;99712.41;;;15.18;88.40
17593;BME280;8915;51.760;14.300;2023-08-07T01:47:10;99715.47;;;15.20;88.79
17593;BME280;8915;51.760;14.300;2023-08-07T01:49:37;99721.53;;;15.20;88.67
17593;BME280;8915;51.760;14.300;2023-08-07T01:52:05;99726.50;;;15.22;88.95
17593;BME280;8915;51.760;14.300;2023-08-07T01:54:33;99723.44;;;15.20;88.56
17593;BME280;8915;51.760;14.300;2023-08-07T01:57:00;99735.63;;;15.21;88.92
17593;BME280;8915;51.760;14.300;2023-08-07T01:59:26;99728.75;;;15.20;88.40
17593;BME280;8915;51.760;14.300;2023-08-07T02:01:52;99726.09;;;15.20;88.44
17593;BME280;8915;51.760;14.300;2023-08-07T02:04:19;99728.75;;;15.20;88.62
17593;BME280;8915;51.760;14.300;2023-08-07T02:06:45;99736.00;;;15.19;88.35
17593;BME280;8915;51.760;14.300;2023-08-07T02:09:12;99736.34;;;15.18;88.72
17593;BME280;8915;51.760;14.300;2023-08-07T02:11:39;99735.59;;;15.17;88.34
17593;BME280;8915;51.760;14.300;2023-08-07T02:14:06;99736.34;;;15.18;88.60
17593;BME280;8915;51.760;14.300;2023-08-07T02:16:32;99739.38;;;15.16;88.76
17593;BME280;8915;51.760;14.300;2023-08-07T02:18:58;99733.31;;;15.16;88.47
17593;BME280;8915;51.760;14.300;2023-08-07T02:21:25;99738.63;;;15.16;88.74
17593;BME280;8915;51.760;14.300;2023-08-07T02:23:51;99744.34;;;15.14;88.55
17593;BME280;8915;51.760;14.300;2023-08-07T02:26:17;99741.66;;;15.14;88.65
17593;BME280;8915;51.760;14.300;2023-08-07T02:28:45;99740.16;;;15.13;88.45
17593;BME280;8915;51.760;14.300;2023-08-07T02:31:11;99731.78;;;15.11;88.32
17593;BME280;8915;51.760;14.300;2023-08-07T02:33:38;99742.41;;;15.11;88.54
17593;BME280;8915;51.760;14.300;2023-08-07T02:36:06;99733.69;;;15.11;88.53
17593;BME280;8915;51.760;14.300;2023-08-07T02:38:32;99740.13;;;15.10;88.82
17593;BME280;8915;51.760;14.300;2023-08-07T02:40:59;99737.47;;;15.10;88.22
17593;BME280;8915;51.760;14.300;2023-08-07T02:43:25;99745.44;;;15.10;88.28
17593;BME280;8915;51.760;14.300;2023-08-07T02:45:55;99743.53;;;15.07;88.81
17593;BME280;8915;51.760;14.300;2023-08-07T02:48:21;99736.72;;;15.06;88.85
17593;BME280;8915;51.760;14.300;2023-08-07T02:50:47;99745.44;;;15.06;88.10
17593;BME280;8915;51.760;14.300;2023-08-07T02:53:16;99738.97;;;15.07;88.23
17593;BME280;8915;51.760;14.300;2023-08-07T02:55:43;99730.63;;;15.05;88.90
17593;BME280;8915;51.760;14.300;2023-08-07T02:58:09;99735.94;;;15.05;88.81
17593;BME280;8915;51.760;14.300;2023-08-07T03:00:36;99742.03;;;15.06;88.81
17593;BME280;8915;51.760;14.300;2023-08-07T03:03:04;99734.41;;;15.04;89.03
17593;BME280;8915;51.760;14.300;2023-08-07T03:05:30;99733.66;;;15.04;88.62
17593;BME280;8915;51.760;14.300;2023-08-07T03:07:57;99735.19;;;15.05;88.81
17593;BME280;8915;51.760;14.300;2023-08-07T03:10:23;99734.41;;;15.04;88.94
17593;BME280;8915;51.760;14.300;2023-08-07T03:12:49;99729.47;;;15.03;88.95
17593;BME280;8915;51.760;14.300;2023-08-07T03:15:16;99737.06;;;15.04;88.64
17593;BME280;8915;51.760;14.300;2023-08-07T03:17:42;99739.72;;;15.01;88.71
17593;BME280;8915;51.760;14.300;2023-08-07T03:20:11;99741.25;;;15.02;89.04
17593;BME280;8915;51.760;14.300;2023-08-07T03:22:37;99741.25;;;15.02;88.59
17593;BME280;8915;51.760;14.300;2023-08-07T03:25:04;99746.19;;;15.00;88.40
17593;BME280;8915;51.760;14.300;2023-08-07T03:27:31;99734.78;;;14.99;88.65
17593;BME280;8915;51.760;14.300;2023-08-07T03:29:57;99735.56;;;15.00;88.53
17593;BME280;8915;51.760;14.300;2023-08-07T03:32:27;99741.97;;;14.99;88.51
17593;BME280;8915;51.760;14.300;2023-08-07T03:34:54;99745.03;;;14.97;88.88
17593;BME280;8915;51.760;14.300;2023-08-07T03:37:22;99752.59;;;14.95;89.10
17593;BME280;8915;51.760;14.300;2023-08-07T03:39:49;99754.91;;;14.97;88.96
17593;BME280;8915;51.760;14.300;2023-08-07T03:42:16;99751.84;;;14.95;89.04
17593;BME280;8915;51.760;14.300;2023-08-07T03:44:44;99756.78;;;14.96;88.81
17593;BME280;8915;51.760;14.300;2023-08-07T03:47:11;99757.94;;;14.95;88.80
17593;BME280;8915;51.760;14.300;2023-08-07T03:49:37;99757.56;;;14.97;89.11
17593;BME280;8915;51.760;14.300;2023-08-07T03:52:04;99748.06;;;14.96;89.50
17593;BME280;8915;51.760;14.300;2023-08-07T03:54:32;99753.00;;;14.97;89.46
17593;BME280;8915;51.760;14.300;2023-08-07T03:56:58;99753.75;;;14.98;89.23
17593;BME280;8915;51.760;14.300;2023-08-07T03:59:25;99748.06;;;14.99;89.54
17593;BME280;8915;51.760;14.300;2023-08-07T04:01:51;99749.97;;;14.99;89.38
17593;BME280;8915;51.760;14.300;2023-08-07T04:04:17;99745.41;;;14.99;89.33
17593;BME280;8915;51.760;14.300;2023-08-07T04:06:44;99750.34;;;14.97;89.83
17593;BME280;8915;51.760;14.300;2023-08-07T04:09:10;99753.38;;;14.99;89.68
17593;BME280;8915;51.760;14.300;2023-08-07T04:11:38;99754.91;;;15.00;89.61
17593;BME280;8915;51.760;14.300;2023-08-07T04:14:04;99757.19;;;15.02;89.84
17593;BME280;8915;51.760;14.300;2023-08-07T04:16:31;99753.75;;;15.01;89.22
17593;BME280;8915;51.760;14.300;2023-08-07T04:18:57;99760.63;;;15.02;89.32
17593;BME280;8915;51.760;14.300;2023-08-07T04:21:24;99765.94;;;15.02;89.59
17593;BME280;8915;51.760;14.300;2023-08-07T04:23:50;99761.75;;;15.01;89.39
17593;BME280;8915;51.760;14.300;2023-08-07T04:26:17;99776.19;;;15.00;89.25
17593;BME280;8915;51.760;14.300;2023-08-07T04:28:44;99768.97;;;14.97;88.99
17593;BME280;8915;51.760;14.300;2023-08-07T04:31:11;99772.00;;;14.96;88.91
17593;BME280;8915;51.760;14.300;2023-08-07T04:33:37;99768.56;;;14.95;89.07
17593;BME280;8915;51.760;14.300;2023-08-07T04:36:04;99775.78;;;14.95;88.81
17593;BME280;8915;51.760;14.300;2023-08-07T04:38:30;99772.72;;;14.93;88.83
17593;BME280;8915;51.760;14.300;2023-08-07T04:40:56;99785.66;;;14.94;88.76
17593;BME280;8915;51.760;14.300;2023-08-07T04:43:23;99786.41;;;14.95;89.11
17593;BME280;8915;51.760;14.300;2023-08-07T04:45:50;99790.59;;;14.96;89.31
17593;BME280;8915;51.760;14.300;2023-08-07T04:48:17;99794.78;;;14.97;89.23
17593;BME280;8915;51.760;14.300;2023-08-07T04:50:46;99791.38;;;15.00;89.74
17593;BME280;8915;51.760;14.300;2023-08-07T04:53:12;99791.00;;;15.01;89.35
17593;BME280;8915;51.760;14.300;2023-08-07T04:55:39;99789.47;;;15.04;89.16
17593;BME280;8915;51.760;14.300;2023-08-07T04:58:05;99796.34;;;15.08;89.09
17593;BME280;8915;51.760;14.300;2023-08-07T05:00:31;99798.63;;;15.10;89.24
17593;BME280;8915;51.760;14.300;2023-08-07T05:02:59;99798.25;;;15.11;89.14
17593;BME280;8915;51.760;14.300;2023-08-07T05:05:27;99805.88;;;15.16;88.69
17593;BME280;8915;51.760;14.300;2023-08-07T05:07:54;99804.34;;;15.19;88.78
17593;BME280;8915;51.760;14.300;2023-08-07T05:10:20;99808.53;;;15.20;88.88
17593;BME280;8915;51.760;14.300;2023-08-07T05:12:46;99818.06;;;15.24;88.69
17593;BME280;8915;51.760;14.300;2023-08-07T05:15:13;99827.19;;;15.27;89.00
17593;BME280;8915;51.760;14.300;2023-08-07T05:17:40;99827.97;;;15.31;88.29
17593;BME280;8915;51.760;14.300;2023-08-07T05:20:08;99839.00;;;15.29;88.48
17593;BME280;8915;51.760;14.300;2023-08-07T05:22:36;99827.19;;;15.27;88.29
17593;BME280;8915;51.760;14.300;2023-08-07T05:25:03;99822.63;;;15.27;88.21
17593;BME280;8915;51.760;14.300;2023-08-07T05:27:29;99829.16;;;15.33;88.11
17593;BME280;8915;51.760;14.300;2023-08-07T05:29:55;99834.09;;;15.35;88.40
17593;BME280;8915;51.760;14.300;2023-08-07T05:32:22;99827.66;;;15.39;88.21
17593;BME280;8915;51.760;14.300;2023-08-07T05:34:48;99826.91;;;15.42;88.47
17593;BME280;8915;51.760;14.300;2023-08-07T05:37:17;99825.38;;;15.48;87.85
17593;BME280;8915;51.760;14.300;2023-08-07T05:39:43;99815.53;;;15.52;87.85
17593;BME280;8915;51.760;14.300;2023-08-07T05:42:09;99825.44;;;15.59;87.73
17593;BME280;8915;51.760;14.300;2023-08-07T05:44:37;99826.22;;;15.63;87.70
17593;BME280;8915;51.760;14.300;2023-08-07T05:47:04;99830.41;;;15.67;87.35
17593;BME280;8915;51.760;14.300;2023-08-07T05:49:30;99825.84;;;15.71;87.48
17593;BME280;8915;51.760;14.300;2023-08-07T05:51:57;99836.50;;;15.75;87.15
17593;BME280;8915;51.760;14.300;2023-08-07T05:54:25;99842.97;;;15.77;87.25
17593;BME280;8915;51.760;14.300;2023-08-07T05:56:51;99840.31;;;15.81;86.73
17593;BME280;8915;51.760;14.300;2023-08-07T05:59:17;99849.84;;;15.89;87.05
17593;BME280;8915;51.760;14.300;2023-08-07T06:01:43;99859.34;;;15.93;86.90
17593;BME280;8915;51.760;14.300;2023-08-07T06:04:10;99856.69;;;16.00;86.99
17593;BME280;8915;51.760;14.300;2023-08-07T06:06:36;99860.53;;;16.06;86.54
17593;BME280;8915;51.760;14.300;2023-08-07T06:09:04;99854.44;;;16.13;86.92
17593;BME280;8915;51.760;14.300;2023-08-07T06:11:32;99863.19;;;16.10;86.23
17593;BME280;8915;51.760;14.300;2023-08-07T06:13:59;99868.53;;;16.13;86.64
17593;BME280;8915;51.760;14.300;2023-08-07T06:16:25;99871.19;;;16.17;86.06
17593;BME280;8915;51.760;14.300;2023-08-07T06:18:52;99874.63;;;16.17;85.76
17593;BME280;8915;51.760;14.300;2023-08-07T06:21:18;99873.47;;;16.22;85.61
17593;BME280;8915;51.760;14.300;2023-08-07T06:23:45;99871.19;;;16.31;85.72
17593;BME280;8915;51.760;14.300;2023-08-07T06:26:12;99873.88;;;16.34;85.73
17593;BME280;8915;51.760;14.300;2023-08-07T06:28:39;99870.84;;;16.39;85.02
17593;BME280;8915;51.760;14.300;2023-08-07T06:31:07;99871.97;;;16.45;84.97
17593;BME280;8915;51.760;14.300;2023-08-07T06:33:34;99870.88;;;16.50;84.99
17593;BME280;8915;51.760;14.300;2023-08-07T06:36:01;99865.91;;;16.48;83.96
17593;BME280;8915;51.760;14.300;2023-08-07T06:38:28;99875.41;;;16.56;83.96
17593;BME280;8915;51.760;14.300;2023-08-07T06:40:54;99874.66;;;16.63;84.96
17593;BME280;8915;51.760;14.300;2023-08-07T06:43:21;99875.78;;;16.62;83.76
17593;BME280;8915;51.760;14.300;2023-08-07T06:45:49;99880.75;;;16.70;84.42
17593;BME280;8915;51.760;14.300;2023-08-07T06:48:16;99878.47;;;16.76;83.48
17593;BME280;8915;51.760;14.300;2023-08-07T06:50:42;99871.59;;;16.78;82.73
17593;BME280;8915;51.760;14.300;2023-08-07T06:53:08;99885.28;;;16.84;83.96
17593;BME280;8915;51.760;14.300;2023-08-07T06:55:35;99881.84;;;16.90;83.09
17593;BME280;8915;51.760;14.300;2023-08-07T06:58:01;99883.38;;;16.95;82.97
17593;BME280;8915;51.760;14.300;2023-08-07T07:00:27;99890.22;;;16.99;82.45
17593;BME280;8915;51.760;14.300;2023-08-07T07:02:55;99894.41;;;17.04;82.52
17593;BME280;8915;51.760;14.300;2023-08-07T07:05:21;99890.19;;;17.10;80.84
17593;BME280;8915;51.760;14.300;2023-08-07T07:07:48;99895.16;;;17.11;81.04
17593;BME280;8915;51.760;14.300;2023-08-07T07:10:14;99895.50;;;17.13;81.47
17593;BME280;8915;51.760;14.300;2023-08-07T07:12:41;99904.63;;;17.19;81.25
17593;BME280;8915;51.760;14.300;2023-08-07T07:15:07;99914.19;;;17.17;80.36
17593;BME280;8915;51.760;14.300;2023-08-07T07:17:34;99910.75;;;17.20;79.88
17593;BME280;8915;51.760;14.300;2023-08-07T07:20:02;99921.41;;;17.23;79.91
17593;BME280;8915;51.760;14.300;2023-08-07T07:22:29;99919.50;;;17.27;80.02
17593;BME280;8915;51.760;14.300;2023-08-07T07:24:55;99928.66;;;17.26;78.59
17593;BME280;8915;51.760;14.300;2023-08-07T07:27:21;99926.34;;;17.32;78.03
17593;BME280;8915;51.760;14.300;2023-08-07T07:29:50;99927.50;;;17.41;79.37
17593;BME280;8915;51.760;14.300;2023-08-07T07:32:16;99928.59;;;17.51;79.34
17593;BME280;8915;51.760;14.300;2023-08-07T07:34:43;99932.78;;;17.52;78.01
17593;BME280;8915;51.760;14.300;2023-08-07T07:37:10;99933.16;;;17.50;77.14
17593;BME280;8915;51.760;14.300;2023-08-07T07:39:39;99929.75;;;17.53;77.40
17593;BME280;8915;51.760;14.300;2023-08-07T07:42:07;99946.88;;;17.59;78.31
17593;BME280;8915;51.760;14.300;2023-08-07T07:44:33;99946.13;;;17.59;78.54
17593;BME280;8915;51.760;14.300;2023-08-07T07:47:00;99941.94;;;17.51;74.93
17593;BME280;8915;51.760;14.300;2023-08-07T07:49:26;99938.91;;;17.52;77.23
17593;BME280;8915;51.760;14.300;2023-08-07T07:51:53;99946.56;;;17.43;76.40
17593;BME280;8915;51.760;14.300;2023-08-07T07:54:20;99952.28;;;17.42;77.17
17593;BME280;8915;51.760;14.300;2023-08-07T07:56:47;99957.63;;;17.38;76.12
17593;BME280;8915;51.760;14.300;2023-08-07T07:59:13;99954.94;;;17.38;76.78
17593;BME280;8915;51.760;14.300;2023-08-07T08:01:39;99953.78;;;17.36;75.39
17593;BME280;8915;51.760;14.300;2023-08-07T08:04:06;99957.59;;;17.42;77.30
17593;BME280;8915;51.760;14.300;2023-08-07T08:06:32;99960.63;;;17.51;76.86
17593;BME280;8915;51.760;14.300;2023-08-07T08:08:59;99964.81;;;17.55;76.91
17593;BME280;8915;51.760;14.300;2023-08-07T08:11:30;99959.50;;;17.59;76.53
17593;BME280;8915;51.760;14.300;2023-08-07T08:13:56;99962.91;;;17.56;76.26
17593;BME280;8915;51.760;14.300;2023-08-07T08:16:23;99963.69;;;17.49;74.80
17593;BME280;8915;51.760;14.300;2023-08-07T08:18:49;99962.19;;;17.41;74.38
17593;BME280;8915;51.760;14.300;2023-08-07T08:21:15;99967.50;;;17.52;75.07
17593;BME280;8915;51.760;14.300;2023-08-07T08:23:42;99960.97;;;17.63;76.40
17593;BME280;8915;51.760;14.300;2023-08-07T08:26:08;99960.59;;;17.65;74.90
17593;BME280;8915;51.760;14.300;2023-08-07T08:28:36;99964.41;;;17.71;75.00
17593;BME280;8915;51.760;14.300;2023-08-07T08:31:02;99961.72;;;17.71;74.54
17593;BME280;8915;51.760;14.300;2023-08-07T08:33:28;99968.59;;;17.68;73.65
17593;BME280;8915;51.760;14.300;2023-08-07T08:35:55;99973.16;;;17.68;74.71
17593;BME280;8915;51.760;14.300;2023-08-07T08:38:21;99972.78;;;17.69;73.98
17593;BME280;8915;51.760;14.300;2023-08-07T08:40:51;99971.63;;;17.74;74.97
17593;BME280;8915;51.760;14.300;2023-08-07T08:43:18;99974.28;;;17.77;75.36
17593;BME280;8915;51.760;14.300;2023-08-07T08:45:46;99976.19;;;17.77;73.74
17593;BME280;8915;51.760;14.300;2023-08-07T08:48:19;99984.97;;;17.70;73.30
17593;BME280;8915;51.760;14.300;2023-08-07T08:50:48;99982.72;;;17.65;73.57
17593;BME280;8915;51.760;14.300;2023-08-07T08:53:15;99980.44;;;17.64;74.22
17593;BME280;8915;51.760;14.300;2023-08-07T08:55:42;99978.16;;;17.62;75.74
17593;BME280;8915;51.760;14.300;2023-08-07T08:58:12;99981.97;;;17.61;74.35
17593;BME280;8915;51.760;14.300;2023-08-07T09:00:40;99972.78;;;17.69;74.12
17593;BME280;8915;51.760;14.300;2023-08-07T09:03:08;99972.72;;;17.87;74.88
17593;BME280;8915;51.760;14.300;2023-08-07T09:05:35;99977.22;;;18.00;73.23
17593;BME280;8915;51.760;14.300;2023-08-07T09:08:03;99987.16;;;18.03;73.96
17593;BME280;8915;51.760;14.300;2023-08-07T09:10:30;99988.72;;;17.97;73.57
17593;BME280;8915;51.760;14.300;2023-08-07T09:13:01;99985.72;;;17.85;75.43
17593;BME280;8915;51.760;14.300;2023-08-07T09:15:29;99991.47;;;17.73;75.52
17593;BME280;8915;51.760;14.300;2023-08-07T09:17:57;99999.53;;;17.52;76.21
17593;BME280;8915;51.760;14.300;2023-08-07T09:20:25;99998.03;;;17.44;76.40
17593;BME280;8915;51.760;14.300;2023-08-07T09:22:52;100005.66;;;17.35;76.78
17593;BME280;8915;51.760;14.300;2023-08-07T09:25:26;100005.28;;;17.36;78.44
17593;BME280;8915;51.760;14.300;2023-08-07T09:27:54;99998.03;;;17.47;79.96
17593;BME280;8915;51.760;14.300;2023-08-07T09:30:21;99996.84;;;17.62;79.78
17593;BME280;8915;51.760;14.300;2023-08-07T09:32:51;100000.19;;;17.84;79.01
17593;BME280;8915;51.760;14.300;2023-08-07T09:35:20;100023.50;;;17.83;73.58
17593;BME280;8915;51.760;14.300;2023-08-07T09:37:48;100008.97;;;17.84;75.18
17593;BME280;8915;51.760;14.300;2023-08-07T09:40:15;100012.41;;;17.85;75.26
17593;BME280;8915;51.760;14.300;2023-08-07T09:42:41;100011.22;;;17.96;75.73
17593;BME280;8915;51.760;14.300;2023-08-07T09:45:19;100003.22;;;18.00;72.69
17593;BME280;8915;51.760;14.300;2023-08-07T09:47:45;100015.00;;;18.06;73.57
17593;BME280;8915;51.760;14.300;2023-08-07T09:50:15;100003.53;;;18.09;75.74
17593;BME280;8915;51.760;14.300;2023-08-07T09:52:46;100010.38;;;18.17;75.46
17593;BME280;8915;51.760;14.300;2023-08-07T09:55:13;100009.19;;;18.28;74.50
17593;BME280;8915;51.760;14.300;2023-08-07T09:57:42;100007.25;;;18.36;70.86
17593;BME280;8915;51.760;14.300;2023-08-07T10:00:09;100006.78;;;18.51;70.65
17593;BME280;8915;51.760;14.300;2023-08-07T10:02:37;100009.34;;;18.65;71.62
17593;BME280;8915;51.760;14.300;2023-08-07T10:05:04;100007.00;;;18.71;69.17
17593;BME280;8915;51.760;14.300;2023-08-07T10:07:31;100011.53;;;18.81;70.27
17593;BME280;8915;51.760;14.300;2023-08-07T10:09:59;100018.28;;;18.96;68.47
17593;BME280;8915;51.760;14.300;2023-08-07T10:12:27;100023.16;;;19.08;67.82
17593;BME280;8915;51.760;14.300;2023-08-07T10:14:54;100008.53;;;19.23;68.19
17593;BME280;8915;51.760;14.300;2023-08-07T10:17:21;100014.50;;;19.41;70.15
17593;BME280;8915;51.760;14.300;2023-08-07T10:19:48;100013.53;;;19.58;65.96
17593;BME280;8915;51.760;14.300;2023-08-07T10:22:15;100001.19;;;19.67;68.14
17593;BME280;8915;51.760;14.300;2023-08-07T10:24:42;100003.31;;;19.83;66.44
17593;BME280;8915;51.760;14.300;2023-08-07T10:27:10;100013.19;;;19.89;65.95
17593;BME280;8915;51.760;14.300;2023-08-07T10:29:39;100011.19;;;19.97;63.66
17593;BME280;8915;51.760;14.300;2023-08-07T10:32:07;100017.50;;;20.13;69.91
17593;BME280;8915;51.760;14.300;2023-08-07T10:34:34;100019.69;;;20.22;65.70
17593;BME280;8915;51.760;14.300;2023-08-07T10:37:00;100013.97;;;20.20;62.18
17593;BME280;8915;51.760;14.300;2023-08-07T10:39:26;100026.88;;;20.28;63.07
17593;BME280;8915;51.760;14.300;2023-08-07T10:41:53;100015.16;;;20.19;64.84
17593;BME280;8915;51.760;14.300;2023-08-07T10:44:22;100008.31;;;20.14;60.00
17593;BME280;8915;51.760;14.300;2023-08-07T10:46:52;100012.06;;;20.20;62.52
17593;BME280;8915;51.760;14.300;2023-08-07T10:49:32;100006.38;;;20.15;61.62
17593;BME280;8915;51.760;14.300;2023-08-07T10:52:02;100001.28;;;20.24;61.13
17593;BME280;8915;51.760;14.300;2023-08-07T10:54:28;100012.75;;;20.28;63.52
17593;BME280;8915;51.760;14.300;2023-08-07T10:56:55;100010.44;;;20.26;63.33
17593;BME280;8915;51.760;14.300;2023-08-07T10:59:21;100013.88;;;20.27;61.91
17593;BME280;8915;51.760;14.300;2023-08-07T11:01:54;100009.59;;;20.33;62.06
17593;BME280;8915;51.760;14.300;2023-08-07T11:04:22;100006.50;;;20.34;62.20
17593;BME280;8915;51.760;14.300;2023-08-07T11:06:50;100009.22;;;20.31;62.81
17593;BME280;8915;51.760;14.300;2023-08-07T11:09:16;100005.81;;;20.30;62.82
17593;BME280;8915;51.760;14.300;2023-08-07T11:11:44;100002.22;;;20.40;61.74
17593;BME280;8915;51.760;14.300;2023-08-07T11:14:12;100000.94;;;20.48;62.31
17593;BME280;8915;51.760;14.300;2023-08-07T11:16:39;100003.97;;;20.50;63.85
17593;BME280;8915;51.760;14.300;2023-08-07T11:19:07;100002.00;;;20.54;60.45
17593;BME280;8915;51.760;14.300;2023-08-07T11:21:34;99993.56;;;20.56;60.58
17593;BME280;8915;51.760;14.300;2023-08-07T11:24:01;99990.88;;;20.56;59.67
17593;BME280;8915;51.760;14.300;2023-08-07T11:26:28;99994.72;;;20.55;57.92
17593;BME280;8915;51.760;14.300;2023-08-07T11:28:55;99996.28;;;20.52;57.90
17593;BME280;8915;51.760;14.300;2023-08-07T11:31:22;99993.59;;;20.52;60.18
17593;BME280;8915;51.760;14.300;2023-08-07T11:33:50;99985.56;;;20.52;60.17
17593;BME280;8915;51.760;14.300;2023-08-07T11:36:18;99995.13;;;20.53;58.51
17593;BME280;8915;51.760;14.300;2023-08-07T11:38:44;99997.28;;;20.62;58.53
17593;BME280;8915;51.760;14.300;2023-08-07T11:41:12;100001.84;;;20.65;55.60
17593;BME280;8915;51.760;14.300;2023-08-07T11:43:39;100009.13;;;20.64;55.12
17593;BME280;8915;51.760;14.300;2023-08-07T11:46:07;100016.72;;;20.69;56.49
17593;BME280;8915;51.760;14.300;2023-08-07T11:48:34;100029.09;;;20.63;54.88
17593;BME280;8915;51.760;14.300;2023-08-07T11:51:02;100019.88;;;20.64;58.67
17593;BME280;8915;51.760;14.300;2023-08-07T11:53:32;100019.78;;;20.71;57.81
17593;BME280;8915;51.760;14.300;2023-08-07T11:55:59;100007.03;;;20.75;57.84
17593;BME280;8915;51.760;14.300;2023-08-07T11:58:27;100017.03;;;20.75;56.24
17593;BME280;8915;51.760;14.300;2023-08-07T12:00:54;100013.25;;;20.72;58.19
17593;BME280;8915;51.760;14.300;2023-08-07T12:03:27;100011.66;;;20.75;56.55
17593;BME280;8915;51.760;14.300;2023-08-07T12:05:55;100018.44;;;20.83;58.10
17593;BME280;8915;51.760;14.300;2023-08-07T12:08:22;100018.38;;;20.86;55.99
17593;BME280;8915;51.760;14.300;2023-08-07T12:10:50;100019.47;;;20.92;55.97
17593;BME280;8915;51.760;14.300;2023-08-07T12:13:20;100017.47;;;20.96;55.71
17593;BME280;8915;51.760;14.300;2023-08-07T12:15:46;100029.28;;;21.02;55.88
17593;BME280;8915;51.760;14.300;2023-08-07T12:18:13;100020.16;;;20.96;54.78
17593;BME280;8915;51.760;14.300;2023-08-07T12:20:41;100025.59;;;20.93;55.80
17593;BME280;8915;51.760;14.300;2023-08-07T12:23:13;100018.75;;;20.88;54.91
17593;BME280;8915;51.760;14.300;2023-08-07T12:25:41;100035.22;;;20.90;56.39
17593;BME280;8915;51.760;14.300;2023-08-07T12:28:08;100020.94;;;20.97;56.44
17593;BME280;8915;51.760;14.300;2023-08-07T12:30:35;100023.94;;;20.99;56.67
17593;BME280;8915;51.760;14.300;2023-08-07T12:33:02;100025.06;;;21.01;54.20
17593;BME280;8915;51.760;14.300;2023-08-07T12:35:29;100028.69;;;21.14;59.34
17593;BME280;8915;51.760;14.300;2023-08-07T12:37:56;100023.13;;;21.25;55.55
17593;BME280;8915;51.760;14.300;2023-08-07T12:40:22;100022.25;;;21.31;55.68
17593;BME280;8915;51.760;14.300;2023-08-07T12:42:49;100011.25;;;21.26;54.54
17593;BME280;8915;51.760;14.300;2023-08-07T12:45:17;100023.13;;;21.25;55.00
17593;BME280;8915;51.760;14.300;2023-08-07T12:47:44;100014.25;;;21.28;55.14
17593;BME280;8915;51.760;14.300;2023-08-07T12:50:11;100035.75;;;21.28;58.67
17593;BME280;8915;51.760;14.300;2023-08-07T12:52:37;100031.81;;;21.32;52.03
17593;BME280;8915;51.760;14.300;2023-08-07T12:55:05;100033.38;;;21.33;55.22
17593;BME280;8915;51.760;14.300;2023-08-07T12:57:32;100026.53;;;21.29;50.99